createdAt,value
2024-02-19T00:01:08.169Z,98115.03
2024-02-19T00:03:35.999Z,98114.25
2024-02-19T00:06:05.671Z,98117.38
2024-02-19T00:08:33.306Z,98111.00
2024-02-19T00:11:03.135Z,98118.72
2024-02-19T00:13:31.141Z,98133.75
2024-02-19T00:15:58.736Z,98132.28
2024-02-19T00:18:27.116Z,98128.31
2024-02-19T00:20:54.747Z,98128.97
2024-02-19T00:23:22.356Z,98146.88
2024-02-19T00:25:50.022Z,98141.31
2024-02-19T00:28:19.053Z,98144.59
2024-02-19T00:30:46.947Z,98130.19
2024-02-19T00:33:14.777Z,98152.00
2024-02-19T00:35:42.552Z,98143.72
2024-02-19T00:38:10.786Z,98144.94
2024-02-19T00:40:38.893Z,98135.28
2024-02-19T00:43:06.786Z,98137.91
2024-02-19T00:45:35.918Z,98145.66
2024-02-19T00:48:03.831Z,98143.34
2024-02-19T00:50:31.623Z,98145.25
2024-02-19T00:52:59.298Z,98137.59
2024-02-19T00:55:27.227Z,98129.41
2024-02-19T00:57:54.974Z,98136.38
2024-02-19T01:00:23.919Z,98134.53
2024-02-19T01:02:52.994Z,98132.59
2024-02-19T01:05:20.756Z,98144.38
2024-02-19T01:07:48.433Z,98136.66
2024-02-19T01:10:16.335Z,98130.94
2024-02-19T01:12:44.023Z,98121.16
2024-02-19T01:15:12.274Z,98125.50
2024-02-19T01:17:39.997Z,98139.47
2024-02-19T01:20:10.816Z,98144.50
2024-02-19T01:22:40.020Z,98142.47
2024-02-19T01:25:08.579Z,98141.63
2024-02-19T01:27:36.310Z,98144.78
2024-02-19T01:30:03.999Z,98151.38
2024-02-19T01:32:31.706Z,98142.72
2024-02-19T01:34:59.555Z,98140.50
2024-02-19T01:37:28.691Z,98149.34
2024-02-19T01:39:56.381Z,98155.69
2024-02-19T01:42:24.128Z,98156.81
2024-02-19T01:44:51.857Z,98167.47
2024-02-19T01:47:20.145Z,98161.81
2024-02-19T01:49:47.969Z,98162.06
2024-02-19T01:52:16.233Z,98165.09
2024-02-19T01:54:45.743Z,98167.16
2024-02-19T01:57:13.839Z,98166.25
2024-02-19T01:59:41.915Z,98171.78
2024-02-19T02:02:10.826Z,98175.97
2024-02-19T02:04:39.568Z,98176.03
2024-02-19T02:07:07.603Z,98181.38
2024-02-19T02:09:35.763Z,98173.25
2024-02-19T02:12:05.144Z,98172.81
2024-02-19T02:14:32.802Z,98172.31
2024-02-19T02:17:00.539Z,98162.03
2024-02-19T02:19:28.326Z,98170.63
2024-02-19T02:21:56.268Z,98169.31
2024-02-19T02:24:23.965Z,98170.34
2024-02-19T02:26:52.992Z,98179.78
2024-02-19T02:29:20.608Z,98183.06
2024-02-19T02:31:48.336Z,98188.53
2024-02-19T02:34:16.098Z,98171.94
2024-02-19T02:36:43.823Z,98175.75
2024-02-19T02:39:11.628Z,98185.47
2024-02-19T02:41:39.266Z,98180.03
2024-02-19T02:44:08.696Z,98183.47
2024-02-19T02:46:36.479Z,98194.69
2024-02-19T02:49:04.559Z,98191.31
2024-02-19T02:51:32.916Z,98200.56
2024-02-19T02:54:00.667Z,98191.72
2024-02-19T02:56:28.327Z,98192.75
2024-02-19T02:58:55.940Z,98180.38
2024-02-19T03:01:29.466Z,98188.50
2024-02-19T03:03:57.283Z,98191.13
2024-02-19T03:06:25.066Z,98198.75
2024-02-19T03:08:52.859Z,98208.78
2024-02-19T03:11:20.622Z,98192.63
2024-02-19T03:13:48.359Z,98198.28
2024-02-19T03:16:17.740Z,98209.25
2024-02-19T03:18:47.679Z,98207.72
2024-02-19T03:21:17.171Z,98204.56
2024-02-19T03:23:52.531Z,98215.06
2024-02-19T03:26:34.786Z,98206.09
2024-02-19T03:29:12.615Z,98211.91
2024-02-19T03:31:40.380Z,98224.13
2024-02-19T03:34:09.973Z,98222.41
2024-02-19T03:39:05.906Z,98224.13
2024-02-19T03:41:34.429Z,98217.66
2024-02-19T03:44:02.031Z,98215.78
2024-02-19T03:46:29.614Z,98213.13
2024-02-19T03:48:57.400Z,98223.44
2024-02-19T03:51:26.360Z,98220.59
2024-02-19T03:53:55.464Z,98230.06
2024-02-19T03:56:24.378Z,98224.13
2024-02-19T03:58:52.572Z,98230.09
2024-02-19T04:01:20.293Z,98249.63
2024-02-19T04:03:47.952Z,98247.28
2024-02-19T04:06:15.582Z,98252.75
2024-02-19T04:08:44.516Z,98256.56
2024-02-19T04:11:15.817Z,98251.69
2024-02-19T04:13:43.372Z,98260.97
2024-02-19T04:16:11.277Z,98261.78
2024-02-19T04:18:38.996Z,98268.13
2024-02-19T04:21:07.694Z,98268.53
2024-02-19T04:23:36.441Z,98271.91
2024-02-19T04:26:09.268Z,98280.06
2024-02-19T04:28:39.819Z,98275.22
2024-02-19T04:31:07.753Z,98290.44
2024-02-19T04:33:37.443Z,98287.94
2024-02-19T04:36:06.242Z,98283.56
2024-02-19T04:38:35.258Z,98293.28
2024-02-19T04:41:03.876Z,98287.88
2024-02-19T04:43:33.260Z,98305.22
2024-02-19T04:46:06.943Z,98304.88
2024-02-19T04:48:37.512Z,98312.75
2024-02-19T04:51:07.879Z,98304.16
2024-02-19T04:53:35.887Z,98305.53
2024-02-19T04:56:04.608Z,98309.59
2024-02-19T04:58:33.718Z,98310.25
2024-02-19T05:01:02.607Z,98313.81
2024-02-19T05:03:30.263Z,98309.59
2024-02-19T05:05:57.882Z,98311.03
2024-02-19T05:08:25.484Z,98306.06
2024-02-19T05:10:53.418Z,98303.13
2024-02-19T05:13:21.096Z,98312.25
2024-02-19T05:15:50.169Z,98314.84
2024-02-19T05:18:17.922Z,98313.34
2024-02-19T05:20:45.542Z,98314.72
2024-02-19T05:23:13.155Z,98316.16
2024-02-19T05:25:42.312Z,98318.06
2024-02-19T05:28:10.621Z,98316.16
2024-02-19T05:30:42.553Z,98321.88
2024-02-19T05:33:14.052Z,98321.81
2024-02-19T05:35:43.082Z,98323.84
2024-02-19T05:38:13.178Z,98318.13
2024-02-19T05:40:44.031Z,98320.75
2024-02-19T05:43:13.811Z,98314.06
2024-02-19T05:45:43.227Z,98318.84
2024-02-19T05:48:12.932Z,98317.63
2024-02-19T05:50:42.481Z,98315.56
2024-02-19T05:53:13.531Z,98330.53
2024-02-19T05:55:42.595Z,98325.06
2024-02-19T05:58:10.839Z,98320.69
2024-02-19T06:00:39.643Z,98326.59
2024-02-19T06:03:07.731Z,98322.59
2024-02-19T06:05:40.429Z,98328.88
2024-02-19T06:08:09.238Z,98332.94
2024-02-19T06:10:37.708Z,98340.38
2024-02-19T06:13:06.414Z,98348.84
2024-02-19T06:15:35.191Z,98342.72
2024-02-19T06:18:03.138Z,98352.19
2024-02-19T06:20:31.612Z,98346.72
2024-02-19T06:23:00.977Z,98350.56
2024-02-19T06:25:30.830Z,98352.16
2024-02-19T06:27:59.445Z,98356.25
2024-02-19T06:30:27.285Z,98352.75
2024-02-19T06:32:55.407Z,98364.72
2024-02-19T06:35:23.082Z,98358.75
2024-02-19T06:37:50.980Z,98370.44
2024-02-19T06:40:20.015Z,98370.69
2024-02-19T06:42:47.657Z,98375.72
2024-02-19T06:45:15.228Z,98381.97
2024-02-19T06:47:43.238Z,98385.38
2024-02-19T06:50:11.612Z,98379.94
2024-02-19T06:52:44.312Z,98387.94
2024-02-19T06:55:11.948Z,98386.47
2024-02-19T06:57:40.880Z,98393.44
2024-02-19T07:00:15.579Z,98398.03
2024-02-19T07:02:45.827Z,98411.53
2024-02-19T07:05:15.780Z,98406.44
2024-02-19T07:07:44.424Z,98410.44
2024-02-19T07:10:14.178Z,98417.97
2024-02-19T07:12:43.841Z,98424.22
2024-02-19T07:15:14.302Z,98437.59
2024-02-19T07:17:42.722Z,98425.88
2024-02-19T07:20:12.067Z,98431.66
2024-02-19T07:22:41.264Z,98446.06
2024-02-19T07:25:17.417Z,98452.06
2024-02-19T07:27:51.792Z,98447.97
2024-02-19T07:30:21.641Z,98450.41
2024-02-19T07:32:51.857Z,98443.66
2024-02-19T07:35:21.050Z,98441.44
2024-02-19T07:37:49.112Z,98468.66
2024-02-19T07:40:16.784Z,98475.19
2024-02-19T07:46:33.698Z,98467.34
2024-02-19T07:49:01.450Z,98469.31
2024-02-19T07:51:29.187Z,98467.66
2024-02-19T07:53:58.614Z,98476.34
2024-02-19T07:56:26.233Z,98473.66
2024-02-19T07:58:53.866Z,98475.84
2024-02-19T08:01:21.481Z,98481.69
2024-02-19T08:03:50.496Z,98473.72
2024-02-19T08:06:18.141Z,98472.66
2024-02-19T08:08:49.516Z,98469.50
2024-02-19T08:11:19.731Z,98476.66
2024-02-19T08:13:49.673Z,98477.19
2024-02-19T08:16:26.315Z,98472.38
2024-02-19T08:19:03.002Z,98478.81
2024-02-19T08:21:32.760Z,98477.31
2024-02-19T08:24:03.185Z,98485.53
2024-02-19T08:26:32.949Z,98482.13
2024-02-19T08:29:02.618Z,98492.56
2024-02-19T08:31:32.596Z,98457.44
2024-02-19T08:34:03.443Z,98485.69
2024-02-19T08:36:35.379Z,98480.84
2024-02-19T08:39:03.066Z,98477.59
2024-02-19T08:41:31.999Z,98481.88
2024-02-19T08:43:59.591Z,98487.13
2024-02-19T08:46:27.631Z,98477.66
2024-02-19T08:48:57.191Z,98482.19
2024-02-19T08:51:26.357Z,98484.50
2024-02-19T08:53:59.205Z,98494.59
2024-02-19T08:56:28.544Z,98494.31
2024-02-19T08:58:56.442Z,98493.41
2024-02-19T09:01:27.310Z,98495.38
2024-02-19T09:03:56.742Z,98494.22
2024-02-19T09:06:26.440Z,98491.88
2024-02-19T09:08:57.713Z,98482.00
2024-02-19T09:11:28.285Z,98483.44
2024-02-19T09:13:57.915Z,98502.31
2024-02-19T09:16:26.882Z,98498.50
2024-02-19T09:18:56.708Z,98487.13
2024-02-19T09:21:27.875Z,98485.00
2024-02-19T09:24:01.156Z,98483.31
2024-02-19T09:26:30.102Z,98479.25
2024-02-19T09:28:58.916Z,98480.81
2024-02-19T09:31:28.792Z,98468.34
2024-02-19T09:33:58.240Z,98470.28
2024-02-19T09:36:29.215Z,98481.19
2024-02-19T09:38:57.246Z,98485.94
2024-02-19T09:41:29.927Z,98485.53
2024-02-19T09:43:59.804Z,98488.94
2024-02-19T09:46:28.032Z,98488.13
2024-02-19T09:49:02.921Z,98470.81
2024-02-19T09:51:37.395Z,98477.78
2024-02-19T09:54:08.960Z,98479.66
2024-02-19T09:56:36.683Z,98475.38
2024-02-19T09:59:06.086Z,98464.75
2024-02-19T10:01:34.114Z,98469.84
2024-02-19T10:04:01.915Z,98466.63
2024-02-19T10:06:35.687Z,98474.47
2024-02-19T10:09:08.024Z,98473.41
2024-02-19T10:11:34.719Z,98463.56
2024-02-19T10:14:02.383Z,98464.72
2024-02-19T10:16:30.317Z,98460.16
2024-02-19T10:19:05.316Z,98460.53
2024-02-19T10:21:34.453Z,98461.53
2024-02-19T10:24:02.395Z,98458.56
2024-02-19T10:26:30.020Z,98470.56
2024-02-19T10:28:58.470Z,98471.59
2024-02-19T10:31:26.726Z,98470.03
2024-02-19T10:33:54.733Z,98464.28
2024-02-19T10:36:24.034Z,98457.97
2024-02-19T10:38:53.445Z,98456.28
2024-02-19T10:41:24.429Z,98456.28
2024-02-19T10:43:52.865Z,98449.75
2024-02-19T10:46:22.855Z,98453.69
2024-02-19T10:48:52.636Z,98449.72
2024-02-19T10:51:20.810Z,98449.44
2024-02-19T10:53:48.569Z,98432.88
2024-02-19T10:56:19.561Z,98440.50
2024-02-19T10:58:53.500Z,98430.22
2024-02-19T11:01:21.341Z,98426.25
2024-02-19T11:03:49.201Z,98421.88
2024-02-19T11:06:17.550Z,98423.75
2024-02-19T11:08:52.174Z,98427.47
2024-02-19T11:11:25.497Z,98417.34
2024-02-19T11:13:53.328Z,98429.66
2024-02-19T11:16:21.340Z,98417.22
2024-02-19T11:18:52.600Z,98438.34
2024-02-19T11:21:21.626Z,98425.03
2024-02-19T11:23:49.246Z,98432.13
2024-02-19T11:26:16.893Z,98425.09
2024-02-19T11:28:45.927Z,98424.09
2024-02-19T11:31:15.234Z,98418.50
2024-02-19T11:33:42.913Z,98423.81
2024-02-19T11:36:10.611Z,98428.47
2024-02-19T11:38:39.953Z,98415.13
2024-02-19T11:41:07.658Z,98410.41
2024-02-19T11:43:35.431Z,98398.94
2024-02-19T11:46:04.961Z,98388.31
2024-02-19T11:48:32.722Z,98399.59
2024-02-19T11:51:00.811Z,98406.63
2024-02-19T11:53:28.385Z,98409.06
2024-02-19T11:56:00.967Z,98409.53
2024-02-19T11:58:29.529Z,98408.19
2024-02-19T12:00:57.641Z,98402.84
2024-02-19T12:03:27.462Z,98407.03
2024-02-19T12:05:58.496Z,98382.44
2024-02-19T12:08:26.150Z,98393.53
2024-02-19T12:10:55.646Z,98384.63
2024-02-19T12:13:23.421Z,98367.91
2024-02-19T12:15:51.448Z,98381.84
2024-02-19T12:18:19.213Z,98380.00
2024-02-19T12:20:48.959Z,98374.81
2024-02-19T12:23:16.609Z,98383.13
2024-02-19T12:25:44.263Z,98370.25
2024-02-19T12:28:11.903Z,98380.91
2024-02-19T12:30:39.461Z,98376.13
2024-02-19T12:33:07.298Z,98367.97
2024-02-19T12:35:36.064Z,98351.03
2024-02-19T12:38:06.693Z,98359.75
2024-02-19T12:40:34.302Z,98358.19
2024-02-19T12:43:03.289Z,98363.81
2024-02-19T12:45:30.913Z,98359.19
2024-02-19T12:47:58.617Z,98341.19
2024-02-19T12:50:26.460Z,98344.25
2024-02-19T12:52:54.154Z,98344.53
2024-02-19T12:55:23.270Z,98338.84
2024-02-19T12:57:50.941Z,98344.47
2024-02-19T13:00:19.079Z,98344.03
2024-02-19T13:02:46.951Z,98334.66
2024-02-19T13:05:15.064Z,98338.66
2024-02-19T13:07:43.448Z,98335.72
2024-02-19T13:10:11.663Z,98339.06
2024-02-19T13:12:40.664Z,98345.59
2024-02-19T13:15:08.584Z,98338.91
2024-02-19T13:17:42.960Z,98331.78
2024-02-19T13:20:16.283Z,98338.84
2024-02-19T13:22:44.415Z,98340.13
2024-02-19T13:25:12.121Z,98342.44
2024-02-19T13:27:41.099Z,98343.75
2024-02-19T13:30:10.619Z,98336.06
2024-02-19T13:32:38.465Z,98338.84
2024-02-19T13:35:11.131Z,98341.66
2024-02-19T13:37:39.994Z,98338.09
2024-02-19T13:40:10.722Z,98344.91
2024-02-19T13:42:39.104Z,98336.88
2024-02-19T13:45:10.489Z,98346.91
2024-02-19T13:47:39.078Z,98336.69
2024-02-19T13:50:07.995Z,98328.72
2024-02-19T13:52:36.391Z,98325.13
2024-02-19T13:55:04.163Z,98330.75
2024-02-19T13:57:31.918Z,98335.06
2024-02-19T14:00:00.403Z,98325.78
2024-02-19T14:02:29.916Z,98319.69
2024-02-19T14:04:57.746Z,98308.75
2024-02-19T14:07:25.744Z,98313.97
2024-02-19T14:09:53.493Z,98315.44
2024-02-19T14:12:21.116Z,98302.59
2024-02-19T14:14:48.758Z,98301.72
2024-02-19T14:17:16.387Z,98307.91
2024-02-19T14:19:45.441Z,98307.88
2024-02-19T14:22:13.178Z,98304.09
2024-02-19T14:24:41.879Z,98302.22
2024-02-19T14:27:09.614Z,98307.94
2024-02-19T14:29:37.207Z,98301.72
2024-02-19T14:32:05.349Z,98302.72
2024-02-19T14:34:34.041Z,98299.88
2024-02-19T14:37:03.307Z,98297.50
2024-02-19T14:39:31.527Z,98290.44
2024-02-19T14:41:59.199Z,98296.75
2024-02-19T14:44:26.772Z,98288.06
2024-02-19T14:47:01.814Z,98285.06
2024-02-19T14:49:34.223Z,98291.03
2024-02-19T14:52:03.808Z,98277.91
2024-02-19T14:54:31.559Z,98284.97
2024-02-19T14:57:00.266Z,98278.63
2024-02-19T14:59:29.198Z,98279.91
2024-02-19T15:01:57.149Z,98272.63
2024-02-19T15:04:24.954Z,98284.13
2024-02-19T15:06:52.724Z,98275.13
2024-02-19T15:09:22.608Z,98276.06
2024-02-19T15:11:50.548Z,98275.09
2024-02-19T15:14:19.849Z,98273.25
2024-02-19T15:16:47.481Z,98277.56
2024-02-19T15:19:15.227Z,98271.34
2024-02-19T15:21:42.928Z,98276.41
2024-02-19T15:24:10.751Z,98274.34
2024-02-19T15:26:40.303Z,98272.78
2024-02-19T15:29:08.503Z,98273.34
2024-02-19T15:31:40.233Z,98270.72
2024-02-19T15:34:08.512Z,98269.91
2024-02-19T15:36:36.312Z,98266.63
2024-02-19T15:39:03.949Z,98270.03
2024-02-19T15:41:33.552Z,98258.16
2024-02-19T15:44:05.355Z,98253.91
2024-02-19T15:46:33.618Z,98256.47
2024-02-19T15:49:01.846Z,98255.59
2024-02-19T15:51:30.600Z,98256.25
2024-02-19T15:53:58.260Z,98258.69
2024-02-19T15:56:26.587Z,98264.78
2024-02-19T15:58:54.412Z,98260.47
2024-02-19T16:01:23.568Z,98254.75
2024-02-19T16:03:53.361Z,98254.41
2024-02-19T16:06:22.097Z,98250.34
2024-02-19T16:08:49.817Z,98252.31
2024-02-19T16:11:17.430Z,98252.56
2024-02-19T16:13:45.839Z,98256.00
2024-02-19T16:16:14.792Z,98243.00
2024-02-19T16:18:44.088Z,98240.66
2024-02-19T16:21:11.927Z,98232.66
2024-02-19T16:23:42.260Z,98233.59
2024-02-19T16:26:11.830Z,98232.84
2024-02-19T16:28:41.775Z,98236.72
2024-02-19T16:31:11.676Z,98235.53
2024-02-19T16:33:39.732Z,98235.63
2024-02-19T16:36:09.448Z,98228.03
2024-02-19T16:38:39.062Z,98227.44
2024-02-19T16:41:07.282Z,98222.16
2024-02-19T16:43:35.855Z,98225.19
2024-02-19T16:46:03.877Z,98219.09
2024-02-19T16:48:33.685Z,98225.50
2024-02-19T16:51:01.327Z,98220.84
2024-02-19T16:53:30.252Z,98231.59
2024-02-19T16:55:57.798Z,98226.50
2024-02-19T16:58:25.434Z,98224.19
2024-02-19T17:00:58.273Z,98223.41
2024-02-19T17:03:26.250Z,98227.66
2024-02-19T17:05:54.434Z,98237.56
2024-02-19T17:08:26.734Z,98224.53
2024-02-19T17:10:57.952Z,98224.44
2024-02-19T17:13:25.715Z,98240.09
2024-02-19T17:15:53.328Z,98235.84
2024-02-19T17:18:21.089Z,98235.06
2024-02-19T17:20:48.736Z,98233.19
2024-02-19T17:23:18.685Z,98225.72
2024-02-19T17:25:47.494Z,98228.59
2024-02-19T17:28:16.691Z,98236.34
2024-02-19T17:30:45.174Z,98239.00
2024-02-19T17:33:12.859Z,98239.03
2024-02-19T17:35:42.671Z,98241.88
2024-02-19T17:38:12.566Z,98231.28
2024-02-19T17:40:40.167Z,98227.81
2024-02-19T17:43:08.285Z,98238.28
2024-02-19T17:45:37.285Z,98233.31
2024-02-19T17:48:05.894Z,98233.72
2024-02-19T17:50:36.766Z,98232.81
2024-02-19T17:53:04.439Z,98238.00
2024-02-19T17:55:32.177Z,98243.75
2024-02-19T17:57:59.885Z,98240.34
2024-02-19T18:00:27.467Z,98238.00
2024-02-19T18:02:57.714Z,98236.22
2024-02-19T18:05:27.152Z,98239.06
2024-02-19T18:07:54.804Z,98235.53
2024-02-19T18:10:22.427Z,98230.34
2024-02-19T18:12:50.160Z,98233.81
2024-02-19T18:15:22.619Z,98231.84
2024-02-19T18:17:51.542Z,98236.44
2024-02-19T18:20:20.986Z,98234.16
2024-02-19T18:22:48.666Z,98232.13
2024-02-19T18:25:16.278Z,98228.56
2024-02-19T18:27:43.901Z,98231.81
2024-02-19T18:30:14.030Z,98233.81
2024-02-19T18:32:42.688Z,98228.28
2024-02-19T18:35:10.856Z,98226.84
2024-02-19T18:37:39.993Z,98236.31
2024-02-19T18:40:09.759Z,98226.47
2024-02-19T18:42:39.073Z,98228.41
2024-02-19T18:45:08.003Z,98225.94
2024-02-19T18:47:35.652Z,98225.34
2024-02-19T18:50:03.724Z,98224.84
2024-02-19T18:52:32.835Z,98229.94
2024-02-19T18:55:02.321Z,98223.78
2024-02-19T18:57:29.911Z,98229.81
2024-02-19T18:59:57.455Z,98235.34
2024-02-19T19:02:25.011Z,98220.06
2024-02-19T19:04:52.637Z,98228.19
2024-02-19T19:07:22.312Z,98222.06
2024-02-19T19:09:50.234Z,98225.53
2024-02-19T19:12:19.418Z,98229.66
2024-02-19T19:14:47.029Z,98221.00
2024-02-19T19:17:15.202Z,98233.22
2024-02-19T19:19:43.605Z,98218.84
2024-02-19T19:22:11.887Z,98225.16
2024-02-19T19:24:43.062Z,98228.00
2024-02-19T19:27:10.878Z,98222.38
2024-02-19T19:29:39.800Z,98232.03
2024-02-19T19:32:07.768Z,98229.69
2024-02-19T19:34:35.440Z,98226.47
2024-02-19T19:37:03.065Z,98227.19
2024-02-19T19:39:30.706Z,98227.25
2024-02-19T19:41:58.306Z,98225.53
2024-02-19T19:44:25.915Z,98220.41
2024-02-19T19:46:54.852Z,98216.28
2024-02-19T19:49:23.352Z,98215.19
2024-02-19T19:51:51.150Z,98215.94
2024-02-19T19:54:18.795Z,98220.75
2024-02-19T19:56:46.364Z,98225.28
2024-02-19T19:59:14.148Z,98224.63
2024-02-19T20:01:41.912Z,98225.25
2024-02-19T20:04:10.961Z,98217.25
2024-02-19T20:06:39.699Z,98228.84
2024-02-19T20:09:09.182Z,98223.16
2024-02-19T20:11:36.833Z,98223.69
2024-02-19T20:14:05.020Z,98219.72
2024-02-19T20:16:36.445Z,98221.72
2024-02-19T20:19:04.508Z,98221.72
2024-02-19T20:21:33.575Z,98222.25
2024-02-19T20:24:02.200Z,98223.03
2024-02-19T20:26:30.071Z,98226.69
2024-02-19T20:28:57.683Z,98226.69
2024-02-19T20:31:25.385Z,98223.00
2024-02-19T20:33:53.688Z,98225.25
2024-02-19T20:36:21.748Z,98233.66
2024-02-19T20:38:50.726Z,98231.94
2024-02-19T20:41:18.352Z,98235.75
2024-02-19T20:43:45.942Z,98225.63
2024-02-19T20:46:14.042Z,98234.78
2024-02-19T20:48:41.812Z,98254.59
2024-02-19T20:51:09.428Z,98239.97
2024-02-19T20:53:37.049Z,98258.16
2024-02-19T20:56:06.562Z,98257.28
2024-02-19T20:58:34.350Z,98270.91
2024-02-19T21:01:02.140Z,98268.78
2024-02-19T21:03:35.921Z,98264.72
2024-02-19T21:06:10.441Z,98269.63
2024-02-19T21:08:38.064Z,98269.84
2024-02-19T21:11:09.073Z,98258.75
2024-02-19T21:13:38.802Z,98249.84
2024-02-19T21:16:07.786Z,98254.88
2024-02-19T21:18:42.900Z,98250.59
2024-02-19T21:21:22.150Z,98250.34
2024-02-19T21:23:57.703Z,98245.28
2024-02-19T21:26:29.004Z,98253.53
2024-02-19T21:28:56.794Z,98250.09
2024-02-19T21:31:24.852Z,98255.22
2024-02-19T21:33:52.863Z,98246.16
2024-02-19T21:36:20.682Z,98244.44
2024-02-19T21:38:49.503Z,98237.41
2024-02-19T21:41:17.539Z,98237.97
2024-02-19T21:43:46.761Z,98245.59
2024-02-19T21:46:14.694Z,98238.69
2024-02-19T21:48:43.672Z,98242.03
2024-02-19T21:51:11.345Z,98243.25
2024-02-19T21:53:38.957Z,98250.88
2024-02-19T21:56:07.252Z,98255.22
2024-02-19T21:58:34.972Z,98253.00
2024-02-19T22:01:05.092Z,98248.56
2024-02-19T22:03:33.093Z,98252.53
2024-02-19T22:06:01.228Z,98241.03
2024-02-19T22:08:28.948Z,98239.13
2024-02-19T22:10:56.658Z,98245.13
2024-02-19T22:13:24.416Z,98250.81
2024-02-19T22:15:54.999Z,98243.59
2024-02-19T22:18:25.375Z,98254.81
2024-02-19T22:20:53.581Z,98260.84
2024-02-19T22:23:21.332Z,98248.22
2024-02-19T22:25:49.367Z,98260.97
2024-02-19T22:28:17.663Z,98252.72
2024-02-19T22:30:45.382Z,98255.78
2024-02-19T22:33:13.207Z,98262.50
2024-02-19T22:35:42.218Z,98257.13
2024-02-19T22:38:09.863Z,98259.63
2024-02-19T22:40:37.713Z,98260.91
2024-02-19T22:43:10.328Z,98258.94
2024-02-19T22:45:38.524Z,98248.06
2024-02-19T22:48:09.816Z,98251.75
2024-02-19T22:50:38.607Z,98261.19
2024-02-19T22:53:07.710Z,98263.03
2024-02-19T22:55:35.422Z,98259.31
2024-02-19T22:58:03.745Z,98255.94
2024-02-19T23:00:36.032Z,98256.56
2024-02-19T23:03:04.531Z,98263.22
2024-02-19T23:05:32.485Z,98258.94
2024-02-19T23:08:01.667Z,98262.38
2024-02-19T23:10:31.031Z,98258.16
2024-02-19T23:12:58.908Z,98266.31
2024-02-19T23:15:26.739Z,98260.09
2024-02-19T23:17:54.705Z,98269.84
2024-02-19T23:20:22.675Z,98265.00
2024-02-19T23:22:50.393Z,98271.03
2024-02-19T23:25:18.428Z,98265.91
2024-02-19T23:27:47.561Z,98259.13
2024-02-19T23:30:15.418Z,98254.03
2024-02-19T23:32:43.212Z,98265.81
2024-02-19T23:35:10.925Z,98269.41
2024-02-19T23:37:38.894Z,98281.59
2024-02-19T23:40:13.698Z,98269.19
2024-02-19T23:42:41.323Z,98276.03
2024-02-19T23:45:12.412Z,98280.34
2024-02-19T23:47:40.692Z,98276.44
2024-02-19T23:50:10.439Z,98280.84
2024-02-19T23:52:40.471Z,98276.56
2024-02-19T23:55:10.014Z,98270.00
2024-02-19T23:57:38.678Z,98271.03
